[ 高 清 坊 ]

[ 915 主题 / 1816727 回复 ]

版块介绍: 论坛制作高清同志影视

版主: 晃司, blv

 类型 作者/时间 回复 查看 最后发表
  [海上良宵].Blooming.Night.2016.Short.1080p.x264.AAC-QaFoNE  ...23456..21 blv 2018-3-28 507/12574 360827978 2019-1-28 23:24
  [男人,吾子].A.Man.My.Son.2017.Short.720p.x264.AAC-QaFoNE  ...23456..23 blv 2018-3-23 570/13660 cxx446763 2019-1-29 22:42
  [爱的路].Paths.2017.DVDRip.x264.AAC-QaFoNE  ...23456..68 blv 2018-3-19 1684/21299 haodaxiao123 前天 12:29
  [洞].Hole.2014.Short.1080p.x264.AAC-QaFoNE  ...23456..27 blv 2018-3-13 666/11904 Minguy 2019-2-9 18:24
  [梦呓雨林].I.Dream.in.Another.Language.2017.720p.WEBRip.x264.AAC-QaFoNE  ...23456..51 blv 2018-3-8 1274/16953 zhangtomn 昨天 19:34
  [糖爹先生].Mr.Sugar.Daddy.2016.Short.1080p.x264.AAC-QaFoNE  ...23456..27 blv 2018-3-2 668/13527 lloha 2019-1-20 08:24
  [酷儿们].Queers.2017.s01.720p.WEBRip.x264.AAC-QaFoNE  ...23456..15 blv 2018-2-26 362/8440 ldong1989 2019-1-16 22:20
  [爱砸了].Screwed.2017.720p.WEBRip.x264.AAC-QaFoNE  ...23456..73 blv 2018-2-22 1805/22607 x1x1x 昨天 22:33
  [人生密密缝].Close.Knit.2017.720p.BDRip.x264.AC3-QaFoNE  ...23456..26 blv 2018-2-10 643/14211 plzcheckin 2019-2-10 19:58
  [佩德罗].Pedro.2016.Short.1080p.x264.AAC-QaFoNE  ...23456..69 blv 2018-2-6 1716/19248 wswf 9 小时前
  [男孩们].Boys.2016.Short.1080p.x264.AAC-QaFoNE  ...23456..21 blv 2018-1-31 517/12486 泼泼124 2019-2-7 16:06
  [天使的身体].Body.of.Angels.2016.Short.x264.AAC-QaFoNE  ...23456..65 blv 2018-1-27 1602/20111 wswf 9 小时前
  [梦之船].Dream.Boat.2017.720p.WEBRip.x264.AC3-QaFoNE  ...23456..72 blv 2018-1-24 1797/21250 wskqwgia 4 天前 23:49
  [裸男孩].A.Naked.Boy.2016.Short.1080p.x264.AAC-QaFoNE  ...23456..46 blv 2018-1-20 1130/18037 wswf 9 小时前
  [上帝之国].Gods.Own.Country.2017.1080p.WEB-DL.x264.AC3-QaFoNE  ...23456..139 blv 2018-1-16 3472/38205 haodaxiao123 昨天 21:39
  [阿波罗].Apollon.2016.Short.x264.AAC-QaFoNE  ...23456..44 blv 2018-1-13 1087/15189 wswf 9 小时前
  [伤口].The.Wound.2017.720p.WEB-DL.x264.AC3-QaFoNE  ...23456..46 blv 2018-1-8 1125/18566 zhangtomn 昨天 20:59
  [深郁之蓝].Ultra.Bleu.2016.Short.720p.x264.AAC-QaFoNE  ...23456..32 blv 2018-1-5 797/15042 nichkhun327 4 天前 15:03
  [每分钟120击].120.Beats.Per.Minute.BPM.2017.720p.WEBRip.x264.AAC-QaFoNE  ...23456..97 blv 2018-1-1 2400/28583 haodaxiao123 昨天 21:42
  [嫉妒做客].Jealousy.Is.My.Guest.2016.Short.1080p.x264.AAC-QaFoNE  ...23456..41 blv 2017-12-28 1021/17014 929232482 2019-2-7 17:01
  [请以你的名字呼唤我].Call.Me.By.Your.Name.2017.DVDScr.Upscaled.x264.AAC-QaFoNE 评价指数 19  ...23456..123 blv 2017-12-23 3060/31962 haodaxiao123 昨天 21:44
  [疾走马丁].Speed.Walking.2014.1080p.WEBRip.x265.AC3-QaFoNE  ...23456..23 blv 2017-12-22 562/13793 wo11022 6 天前 14:04
  [帅气的恶魔].Handsome.Devil.2016.1080p.WEB-DL.x265.AC3-QaFoNE  ...23456..62 blv 2017-12-15 1549/21515 haodaxiao123 昨天 21:45
  [觉醒彩虹].Woke.2017.S01.1080p.WEBRip.x264.AAC-QaFoNE  ...23456..42 blv 2017-12-8 1038/17256 迪迦奥特曼 昨天 20:57
  [公猫].Tomcat.2016.DVDRip.x264.AC3-QaFoNE  ...23456..56 blv 2017-12-7 1379/17991 suntianqiang_99 昨天 08:40
  • QAF三国群英传信息联盟发布平台
  •